createdAt,value
2019-03-25T00:00:40.920Z,969.3
2019-03-25T00:10:44.355Z,969
2019-03-25T00:20:47.807Z,969
2019-03-25T00:30:51.222Z,969.2
2019-03-25T00:40:54.653Z,969.2
2019-03-25T00:50:58.110Z,969.2
2019-03-25T01:01:01.556Z,969.3
2019-03-25T01:11:04.948Z,969.2
2019-03-25T01:21:08.409Z,969.5
2019-03-25T01:31:11.859Z,969.7
2019-03-25T01:41:15.308Z,969.8
2019-03-25T01:51:18.804Z,969.7
2019-03-25T02:01:22.251Z,969.9
2019-03-25T02:11:25.664Z,969.8
2019-03-25T02:21:29.095Z,969.6
2019-03-25T02:31:32.545Z,969.6
2019-03-25T02:41:36.030Z,969.8
2019-03-25T02:51:39.465Z,969.9
2019-03-25T03:01:42.929Z,970.4
2019-03-25T03:11:46.376Z,970.2
2019-03-25T03:21:49.837Z,970.5
2019-03-25T03:31:53.340Z,970.3
2019-03-25T03:41:56.800Z,970.4
2019-03-25T03:52:00.293Z,970.7
2019-03-25T04:02:03.721Z,970.8
2019-03-25T04:12:07.156Z,970.8
2019-03-25T04:22:10.614Z,970.8
2019-03-25T04:32:14.059Z,970.8
2019-03-25T04:42:17.525Z,963.4
2019-03-25T04:52:20.985Z,970.8
2019-03-25T05:02:24.444Z,963.3
2019-03-25T05:12:27.900Z,963.4
2019-03-25T05:22:31.411Z,963.6
2019-03-25T05:32:34.854Z,963.7
2019-03-25T05:42:38.296Z,963.6
2019-03-25T05:52:41.774Z,963.8
2019-03-25T06:02:45.199Z,964
2019-03-25T06:12:48.658Z,963.8
2019-03-25T06:22:52.080Z,964
2019-03-25T06:32:55.541Z,963.6
2019-03-25T06:42:58.983Z,970.4
2019-03-25T06:53:02.435Z,968.9
2019-03-25T07:03:05.858Z,969.3
2019-03-25T07:13:09.326Z,969.6
2019-03-25T07:23:12.768Z,967.4
2019-03-25T07:33:16.215Z,965.1
2019-03-25T07:43:19.672Z,970.7
2019-03-25T07:53:23.166Z,970.4
2019-03-25T08:03:26.619Z,969.7
2019-03-25T08:13:30.108Z,967.9
2019-03-25T08:23:33.534Z,968.2
2019-03-25T08:33:37.003Z,968.1
2019-03-25T08:43:40.452Z,967.8
2019-03-25T08:53:43.871Z,968.7
2019-03-25T09:03:47.335Z,968
2019-03-25T09:13:50.782Z,968.2
2019-03-25T09:23:54.231Z,969.4
2019-03-25T09:33:57.618Z,970.9
2019-03-25T09:44:01.037Z,970.4
2019-03-25T09:54:04.475Z,970.6
2019-03-25T10:04:07.932Z,964.2
2019-03-25T10:14:11.352Z,965.1
2019-03-25T10:24:15.637Z,966.2
2019-03-25T10:34:19.062Z,966.1
2019-03-25T10:44:22.514Z,965.1
2019-03-25T10:54:26.724Z,964.8
2019-03-25T11:04:30.183Z,965.1
2019-03-25T11:14:33.583Z,965.1
2019-03-25T11:24:36.984Z,965.3
2019-03-25T11:34:40.418Z,966.1
2019-03-25T11:44:43.818Z,966.6
2019-03-25T11:54:47.229Z,967.3
2019-03-25T12:04:50.681Z,967.5
2019-03-25T12:14:54.116Z,968
2019-03-25T12:24:57.539Z,967.1
2019-03-25T12:35:00.966Z,966.8
2019-03-25T12:45:04.408Z,967.1
2019-03-25T12:55:07.806Z,968.2
2019-03-25T13:05:11.254Z,967.1
2019-03-25T13:15:14.665Z,967.4
2019-03-25T13:25:18.117Z,966.7
2019-03-25T13:35:21.550Z,966.5
2019-03-25T13:45:25.007Z,967.2
2019-03-25T13:55:28.412Z,966.8
2019-03-25T14:05:31.857Z,966.7
2019-03-25T14:15:35.296Z,966.6
2019-03-25T14:25:38.775Z,967.1
2019-03-25T14:35:42.299Z,967.6
2019-03-25T14:45:45.699Z,967.3
2019-03-25T14:55:49.115Z,967.4
2019-03-25T15:05:52.546Z,967.5
2019-03-25T15:15:55.988Z,968.2
2019-03-25T15:25:59.433Z,969.3
2019-03-25T15:36:02.865Z,970.6
2019-03-25T15:46:06.284Z,969.6
2019-03-25T15:56:09.721Z,969.4
2019-03-25T16:06:13.155Z,969.1
2019-03-25T16:16:16.608Z,969.8
2019-03-25T16:26:20.054Z,969.6
2019-03-25T16:36:23.450Z,970.2
2019-03-25T16:46:26.879Z,966
2019-03-25T16:56:30.309Z,972.6
2019-03-25T17:06:33.743Z,972
2019-03-25T17:16:37.218Z,972.7
2019-03-25T17:26:42.961Z,973
2019-03-25T17:36:46.408Z,973.3
2019-03-25T17:46:49.845Z,973.9
2019-03-25T17:56:53.302Z,966.2
2019-03-25T18:06:56.755Z,966.4
2019-03-25T18:17:00.186Z,966.6
2019-03-25T18:27:03.633Z,966.7
2019-03-25T18:37:07.083Z,967.1
2019-03-25T18:47:10.554Z,967.3
2019-03-25T18:57:14.012Z,967.5
2019-03-25T19:07:17.484Z,967.4
2019-03-25T19:17:20.923Z,967.9
2019-03-25T19:27:24.449Z,968.2
2019-03-25T19:37:27.993Z,968.5
2019-03-25T19:47:31.432Z,968.8
2019-03-25T19:57:34.920Z,969
2019-03-25T20:07:38.476Z,968.8
2019-03-25T20:17:42.000Z,968.8
2019-03-25T20:27:45.594Z,968.7
2019-03-25T20:37:49.072Z,969.2
2019-03-25T20:47:52.574Z,969.1
2019-03-25T20:57:56.043Z,969.3
2019-03-25T21:07:59.510Z,969.1
2019-03-25T21:18:03.208Z,969.2
2019-03-25T21:28:06.792Z,969.1
2019-03-25T21:38:10.356Z,969.3
2019-03-25T21:48:13.883Z,969.3
2019-03-25T21:58:17.662Z,969.4
2019-03-25T22:08:21.105Z,969.3
2019-03-25T22:18:24.565Z,969.4
2019-03-25T22:28:28.009Z,969.5
2019-03-25T22:38:31.484Z,969.6
2019-03-25T22:48:34.908Z,969.5
2019-03-25T22:58:38.374Z,969.7
2019-03-25T23:08:41.767Z,969.9
2019-03-25T23:18:45.204Z,969.9
2019-03-25T23:28:48.646Z,970.3
2019-03-25T23:38:52.073Z,970.1
2019-03-25T23:48:55.479Z,970.1
2019-03-25T23:58:58.940Z,970.1
